createdAt,value
2022-12-15T00:00:40.865Z,8.77
2022-12-15T00:06:02.509Z,10.23
2022-12-15T00:11:23.950Z,9.55
2022-12-15T00:16:45.610Z,9.15
2022-12-15T00:22:07.096Z,11.75
2022-12-15T00:27:28.753Z,7.50
2022-12-15T00:32:51.159Z,9.20
2022-12-15T00:38:12.732Z,11.73
2022-12-15T00:43:15.749Z,8.23
2022-12-15T00:48:18.809Z,8.88
2022-12-15T00:53:41.544Z,8.13
2022-12-15T00:59:03.051Z,7.95
2022-12-15T01:04:24.701Z,8.70
2022-12-15T01:09:46.330Z,7.10
2022-12-15T01:15:07.816Z,10.43
2022-12-15T01:20:20.535Z,8.10
2022-12-15T01:25:25.844Z,7.00
2022-12-15T01:30:28.893Z,7.28
2022-12-15T01:35:32.529Z,10.63
2022-12-15T01:40:47.714Z,9.05
2022-12-15T01:46:12.056Z,8.30
2022-12-15T01:51:20.778Z,8.63
2022-12-15T01:56:26.506Z,6.63
2022-12-15T02:01:30.183Z,8.63
2022-12-15T02:06:33.630Z,8.38
2022-12-15T02:12:01.541Z,8.45
2022-12-15T02:17:23.261Z,7.72
2022-12-15T02:22:50.935Z,8.48
2022-12-15T02:28:02.946Z,9.90
2022-12-15T02:33:24.506Z,10.55
2022-12-15T02:38:35.804Z,9.45
2022-12-15T02:43:39.317Z,8.57
2022-12-15T02:49:08.813Z,8.55
2022-12-15T02:54:24.488Z,9.18
2022-12-15T02:59:45.959Z,11.48
2022-12-15T03:04:56.742Z,9.70
2022-12-15T03:10:03.409Z,9.88
2022-12-15T03:15:07.080Z,10.50
2022-12-15T03:20:10.857Z,9.85
2022-12-15T03:25:14.001Z,8.68
2022-12-15T03:30:17.568Z,8.80
2022-12-15T03:35:21.078Z,11.02
2022-12-15T03:40:24.181Z,8.13
2022-12-15T03:45:28.986Z,10.77
2022-12-15T03:50:32.025Z,6.07
2022-12-15T03:55:35.662Z,10.13
2022-12-15T04:00:39.537Z,12.30
2022-12-15T04:05:42.606Z,9.55
2022-12-15T04:10:45.669Z,13.48
2022-12-15T04:15:48.783Z,9.93
2022-12-15T04:20:51.828Z,9.27
2022-12-15T04:26:14.167Z,11.60
2022-12-15T04:31:39.472Z,15.35
2022-12-15T04:37:04.647Z,14.73
2022-12-15T04:42:26.236Z,11.52
2022-12-15T04:47:48.400Z,11.57
2022-12-15T04:53:10.359Z,11.93
2022-12-15T04:58:32.200Z,11.88
2022-12-15T05:03:53.751Z,12.35
2022-12-15T05:09:15.329Z,15.02
2022-12-15T05:14:37.043Z,18.05
2022-12-15T05:19:58.346Z,13.73
2022-12-15T05:25:19.824Z,9.48
2022-12-15T05:30:41.440Z,16.52
2022-12-15T05:35:45.419Z,10.93
2022-12-15T05:40:48.511Z,12.52
2022-12-15T05:45:51.824Z,11.25
2022-12-15T05:50:55.107Z,12.00
2022-12-15T05:56:11.865Z,9.85
2022-12-15T06:01:17.826Z,13.48
2022-12-15T06:06:21.507Z,14.68
2022-12-15T06:11:24.667Z,15.85
2022-12-15T06:16:30.619Z,20.05
2022-12-15T06:21:36.327Z,24.40
2022-12-15T06:26:40.639Z,28.88
2022-12-15T06:31:43.857Z,37.78
2022-12-15T06:36:47.020Z,30.75
2022-12-15T06:41:50.014Z,53.78
2022-12-15T06:46:53.144Z,45.40
2022-12-15T06:51:56.238Z,27.05
2022-12-15T06:56:59.205Z,34.20
2022-12-15T07:02:02.465Z,27.60
2022-12-15T07:07:05.675Z,16.50
2022-12-15T07:12:12.034Z,18.77
2022-12-15T07:17:15.096Z,22.17
2022-12-15T07:22:18.080Z,20.98
2022-12-15T07:27:43.223Z,20.90
2022-12-15T07:32:49.897Z,20.67
2022-12-15T07:42:56.749Z,11.23
2022-12-15T07:47:59.755Z,11.02
2022-12-15T07:53:03.000Z,16.27
2022-12-15T07:58:06.049Z,17.55
2022-12-15T08:03:09.267Z,15.02
2022-12-15T08:08:15.289Z,22.95
2022-12-15T08:13:52.559Z,35.88
2022-12-15T08:18:41.751Z,25.63
2022-12-15T08:23:45.389Z,25.63
2022-12-15T08:28:48.455Z,19.25
2022-12-15T08:33:52.068Z,17.67
2022-12-15T08:38:57.757Z,11.50
2022-12-15T08:44:01.937Z,10.60
2022-12-15T08:49:05.195Z,11.65
2022-12-15T08:54:09.441Z,11.63
2022-12-15T08:59:12.553Z,12.15
2022-12-15T09:04:16.013Z,12.50
2022-12-15T09:09:19.844Z,9.90
2022-12-15T09:14:28.882Z,14.88
2022-12-15T09:19:32.646Z,13.60
2022-12-15T09:24:35.859Z,25.33
2022-12-15T09:29:38.924Z,55.55
2022-12-15T09:34:42.236Z,50.30
2022-12-15T09:39:45.212Z,38.17
2022-12-15T09:44:50.785Z,35.55
2022-12-15T09:49:59.152Z,24.13
2022-12-15T10:00:45.615Z,19.67
2022-12-15T10:06:16.069Z,20.90
2022-12-15T10:11:24.569Z,21.85
2022-12-15T10:16:51.439Z,16.55
2022-12-15T10:21:54.531Z,22.77
2022-12-15T10:27:25.036Z,30.65
2022-12-15T10:32:51.322Z,24.40
2022-12-15T10:38:00.319Z,35.58
2022-12-15T10:43:14.696Z,19.38
2022-12-15T10:48:20.774Z,19.00
2022-12-15T10:53:41.759Z,26.92
2022-12-15T10:58:52.084Z,25.52
2022-12-15T11:03:57.181Z,25.55
2022-12-15T11:09:25.725Z,31.45
2022-12-15T11:14:46.093Z,45.00
2022-12-15T11:20:02.233Z,70.57
2022-12-15T11:25:25.380Z,75.55
2022-12-15T11:30:42.772Z,83.82
2022-12-15T11:36:41.433Z,67.72
2022-12-15T11:41:56.052Z,40.60
2022-12-15T11:47:27.964Z,34.70
2022-12-15T11:52:56.094Z,23.20
2022-12-15T11:58:10.881Z,26.30
2022-12-15T12:03:38.991Z,15.32
2022-12-15T12:09:08.689Z,20.13
2022-12-15T12:19:58.190Z,19.63
2022-12-15T12:25:22.217Z,14.85
2022-12-15T12:30:29.642Z,21.75
2022-12-15T12:46:36.586Z,12.23
2022-12-15T12:52:05.480Z,16.38
2022-12-15T13:02:31.331Z,11.23
2022-12-15T13:07:42.111Z,17.25
2022-12-15T13:12:54.191Z,25.73
2022-12-15T13:18:06.812Z,35.00
2022-12-15T13:23:21.901Z,19.73
2022-12-15T13:28:38.540Z,15.77
2022-12-15T13:33:50.731Z,14.40
2022-12-15T13:38:56.683Z,17.02
2022-12-15T13:44:01.565Z,13.45
2022-12-15T13:49:37.779Z,13.15
2022-12-15T13:54:48.465Z,10.02
2022-12-15T14:00:05.592Z,14.35
2022-12-15T14:05:19.275Z,12.07
2022-12-15T14:10:30.336Z,20.75
2022-12-15T14:15:35.722Z,17.90
2022-12-15T14:20:43.115Z,17.73
2022-12-15T14:26:16.597Z,20.48
2022-12-15T14:31:24.907Z,22.13
2022-12-15T14:36:28.972Z,17.58
2022-12-15T14:41:44.117Z,22.65
2022-12-15T14:52:02.279Z,17.13
2022-12-15T14:57:28.738Z,9.10
2022-12-15T15:02:31.993Z,9.15
2022-12-15T15:07:46.341Z,17.83
2022-12-15T15:12:49.869Z,10.95
2022-12-15T15:17:59.329Z,12.00
2022-12-15T15:23:08.090Z,43.72
2022-12-15T15:28:20.283Z,18.75
2022-12-15T15:33:23.986Z,18.58
2022-12-15T15:38:33.931Z,38.00
2022-12-15T15:43:37.371Z,20.98
2022-12-15T15:48:54.300Z,15.75
2022-12-15T15:54:01.460Z,33.00
2022-12-15T15:59:12.438Z,19.88
2022-12-15T16:04:15.661Z,21.10
2022-12-15T16:09:18.772Z,18.05
2022-12-15T16:14:21.910Z,25.27
2022-12-15T16:19:27.992Z,23.30
2022-12-15T16:24:31.110Z,26.77
2022-12-15T16:29:34.337Z,42.33
2022-12-15T16:34:37.397Z,35.35
2022-12-15T16:39:40.604Z,24.02
2022-12-15T16:44:43.791Z,43.70
2022-12-15T16:49:47.052Z,49.28
2022-12-15T16:54:51.025Z,27.15
2022-12-15T16:59:54.128Z,30.00
2022-12-15T17:04:57.193Z,40.33
2022-12-15T17:10:00.239Z,16.90
2022-12-15T17:15:09.281Z,19.80
2022-12-15T17:20:30.532Z,15.80
2022-12-15T17:31:06.176Z,22.45
2022-12-15T17:36:29.463Z,32.25
2022-12-15T17:41:58.660Z,24.77
2022-12-15T17:46:55.618Z,30.33
2022-12-15T17:52:02.743Z,40.80
2022-12-15T17:57:05.793Z,39.42
2022-12-15T18:02:13.442Z,48.83
2022-12-15T18:07:19.886Z,58.75
2022-12-15T18:12:26.467Z,32.90
2022-12-15T18:17:29.572Z,61.88
2022-12-15T18:22:32.603Z,43.63
2022-12-15T18:27:35.630Z,29.85
2022-12-15T18:32:42.319Z,37.47
2022-12-15T18:37:45.721Z,45.97
2022-12-15T18:42:49.363Z,55.40
2022-12-15T18:47:54.357Z,44.05
2022-12-15T18:53:05.447Z,35.75
2022-12-15T18:58:28.985Z,34.97
2022-12-15T19:03:33.200Z,24.70
2022-12-15T19:08:38.911Z,31.52
2022-12-15T19:13:41.945Z,52.08
2022-12-15T19:19:04.179Z,44.30
2022-12-15T19:24:11.228Z,37.97
2022-12-15T19:29:22.952Z,46.05
2022-12-15T19:34:25.965Z,42.30
2022-12-15T19:39:30.510Z,41.47
2022-12-15T19:44:33.453Z,41.75
2022-12-15T19:49:36.486Z,30.42
2022-12-15T19:54:40.082Z,41.63
2022-12-15T19:59:43.157Z,53.78
2022-12-15T20:04:47.632Z,47.03
2022-12-15T20:09:50.678Z,47.67
2022-12-15T20:20:14.423Z,40.13
2022-12-15T20:25:20.350Z,36.95
2022-12-15T20:30:30.216Z,45.97
2022-12-15T20:35:35.864Z,33.13
2022-12-15T20:40:38.910Z,27.58
2022-12-15T20:45:42.118Z,42.22
2022-12-15T20:56:05.077Z,38.38
2022-12-15T21:01:24.572Z,22.77
2022-12-15T21:06:28.999Z,19.73
2022-12-15T21:11:33.387Z,23.85
2022-12-15T21:16:36.435Z,13.45
2022-12-15T21:21:43.967Z,19.70
2022-12-15T21:26:47.411Z,31.75
2022-12-15T21:31:51.114Z,30.20
2022-12-15T21:36:55.052Z,21.90
2022-12-15T21:42:00.574Z,18.52
2022-12-15T21:47:48.261Z,24.20
2022-12-15T21:52:51.577Z,23.20
2022-12-15T21:57:57.892Z,20.70
2022-12-15T22:03:01.209Z,23.35
2022-12-15T22:08:16.367Z,25.42
2022-12-15T22:13:21.562Z,35.20
2022-12-15T22:18:24.553Z,34.90
2022-12-15T22:23:27.592Z,38.22
2022-12-15T22:28:30.826Z,28.23
2022-12-15T22:33:39.713Z,24.58
2022-12-15T22:38:48.794Z,34.20
2022-12-15T22:43:54.911Z,31.27
2022-12-15T22:48:58.017Z,16.98
2022-12-15T22:54:01.818Z,28.40
2022-12-15T22:59:10.750Z,27.20
2022-12-15T23:09:32.396Z,25.08
2022-12-15T23:14:53.621Z,23.08
2022-12-15T23:19:57.947Z,30.70
2022-12-15T23:25:00.904Z,28.52
2022-12-15T23:30:04.694Z,15.57
2022-12-15T23:35:07.972Z,22.23
2022-12-15T23:40:11.526Z,21.25
2022-12-15T23:45:16.339Z,20.92
2022-12-15T23:50:19.538Z,29.00
2022-12-15T23:55:22.586Z,26.70
